Time;durP1;ratioP1;P1;durP2;ratioP2;P2;SDS_P1;SDS_P2;PMS_P1;PMS_P2;Temp;Humidity;BMP_temperature;BMP_pressure;BME280_temperature;BME280_humidity;BME280_pressure;Samples;Min_cycle;Max_cycle;Signal;HPM_P1;HPM_P2
2022/07/08 00:00:37;;;;;;;5.68;4.32;;;;;;;19.98;56.29;95426.47;5086929;28;20043;-80
2022/07/08 00:03:03;;;;;;;6.82;4.43;;;;;;;20.03;55.84;95419.50;5106748;28;20027;-81
2022/07/08 00:05:28;;;;;;;4.25;3.85;;;;;;;20.05;55.92;95418.22;5107181;28;20109;-80
2022/07/08 00:07:54;;;;;;;5.13;4.40;;;;;;;20.04;55.97;95413.84;5105557;28;20039;-80
2022/07/08 00:10:19;;;;;;;5.03;4.30;;;;;;;20.06;56.09;95408.16;5088895;28;20030;-80
2022/07/08 00:12:45;;;;;;;7.30;4.13;;;;;;;20.07;56.08;95410.63;5105908;28;20445;-81
2022/07/08 00:15:10;;;;;;;6.38;4.57;;;;;;;20.03;56.41;95404.03;5107468;28;20486;-80
2022/07/08 00:17:36;;;;;;;6.03;4.47;;;;;;;19.98;56.64;95410.16;5054205;28;20032;-80
2022/07/08 00:20:02;;;;;;;5.55;4.43;;;;;;;19.98;56.56;95403.88;5054849;28;20035;-80
2022/07/08 00:22:28;;;;;;;6.32;4.50;;;;;;;19.97;56.98;95402.22;5071764;28;20034;-81
2022/07/08 00:24:53;;;;;;;6.57;4.55;;;;;;;19.93;57.47;95403.75;5106251;28;20031;-81
2022/07/08 00:27:19;;;;;;;7.50;4.47;;;;;;;20.01;57.50;95406.94;5089017;28;20023;-81
2022/07/08 00:29:44;;;;;;;7.38;4.93;;;;;;;20.04;57.47;95411.09;5087108;28;20029;-81
2022/07/08 00:32:10;;;;;;;4.90;4.40;;;;;;;20.00;57.30;95409.91;5107501;28;20027;-81
2022/07/08 00:34:35;;;;;;;5.68;4.90;;;;;;;20.05;57.33;95415.50;5087155;28;20034;-81
2022/07/08 00:37:01;;;;;;;5.50;4.90;;;;;;;20.07;57.72;95409.81;5106995;28;20375;-81
2022/07/08 00:39:27;;;;;;;15.77;4.75;;;;;;;20.07;57.84;95404.38;5105820;28;20506;-81
2022/07/08 00:41:52;;;;;;;5.78;4.72;;;;;;;20.08;57.98;95417.75;5106248;28;20486;-81
2022/07/08 00:44:18;;;;;;;4.90;4.43;;;;;;;20.06;58.30;95417.16;5071801;28;20470;-81
2022/07/08 00:46:43;;;;;;;4.88;4.40;;;;;;;20.06;58.28;95419.03;5105259;28;20038;-81
2022/07/08 00:49:08;;;;;;;7.05;4.40;;;;;;;19.99;58.43;95411.78;5071893;28;20085;-81
2022/07/08 00:51:34;;;;;;;6.63;4.63;;;;;;;19.99;58.45;95409.06;5086421;28;20417;-80
2022/07/08 00:53:59;;;;;;;6.47;4.22;;;;;;;19.92;58.97;95405.66;5088755;28;20023;-81
2022/07/08 00:56:25;;;;;;;4.90;4.40;;;;;;;19.84;58.63;95406.84;5087143;28;20032;-80
2022/07/08 00:58:51;;;;;;;5.95;4.40;;;;;;;19.77;58.54;95412.41;5088106;28;20106;-79
2022/07/08 01:01:16;;;;;;;5.00;3.95;;;;;;;19.74;58.83;95412.03;5088240;28;20048;-80
2022/07/08 01:03:43;;;;;;;6.55;4.07;;;;;;;19.71;58.77;95407.91;5070810;28;20108;-80
2022/07/08 01:06:09;;;;;;;6.65;4.15;;;;;;;19.67;59.42;95408.63;5088522;28;20058;-80
2022/07/08 01:08:34;;;;;;;5.00;4.47;;;;;;;19.61;59.49;95413.94;5105253;28;20028;-80
2022/07/08 01:11:00;;;;;;;9.15;4.68;;;;;;;19.61;59.14;95408.50;5072011;28;20160;-81
2022/07/08 01:13:25;;;;;;;4.97;4.20;;;;;;;19.55;59.57;95417.59;5087160;28;20418;-80
2022/07/08 01:15:51;;;;;;;7.00;4.45;;;;;;;19.56;59.38;95413.81;5088374;28;20370;-80
2022/07/08 01:18:25;;;;;;;4.93;4.40;;;;;;;19.54;59.71;95421.34;5070714;28;20031;-81
2022/07/08 01:20:50;;;;;;;7.32;4.97;;;;;;;19.57;59.91;95418.16;5072736;28;20396;-80
2022/07/08 01:23:16;;;;;;;8.45;4.43;;;;;;;19.55;59.99;95419.47;5092176;28;20046;-81
2022/07/08 01:25:41;;;;;;;5.22;4.65;;;;;;;19.46;60.41;95416.28;5090282;28;20088;-81
2022/07/08 01:28:07;;;;;;;5.95;4.90;;;;;;;19.46;60.12;95406.22;5110663;28;20504;-81
2022/07/08 01:30:32;;;;;;;6.55;5.03;;;;;;;19.40;59.99;95409.88;5073252;28;20466;-81
2022/07/08 01:32:58;;;;;;;6.90;5.47;;;;;;;19.36;59.04;95406.78;5110314;28;20782;-81
2022/07/08 01:35:23;;;;;;;7.25;5.63;;;;;;;19.33;58.73;95401.00;5090570;28;20104;-81
2022/07/08 01:37:49;;;;;;;5.43;4.75;;;;;;;19.33;58.66;95399.09;5091040;28;20032;-81
2022/07/08 01:40:14;;;;;;;5.93;5.30;;;;;;;19.29;58.93;95399.78;5074142;28;20023;-80
2022/07/08 01:42:39;;;;;;;6.72;5.65;;;;;;;19.21;58.90;95409.13;5090520;28;20031;-81
2022/07/08 01:45:05;;;;;;;8.82;5.68;;;;;;;19.19;59.19;95406.63;5091819;28;20043;-81
2022/07/08 01:47:31;;;;;;;6.63;4.88;;;;;;;19.06;59.40;95410.34;5108737;28;20406;-80
2022/07/08 01:49:56;;;;;;;5.93;5.32;;;;;;;19.01;59.74;95404.78;5091729;28;20028;-80
2022/07/08 01:52:22;;;;;;;6.53;5.43;;;;;;;19.05;59.59;95416.84;5090988;28;20478;-80
2022/07/08 01:54:48;;;;;;;6.93;5.28;;;;;;;18.99;59.63;95409.63;5110397;28;20448;-79
2022/07/08 01:57:13;;;;;;;6.60;6.00;;;;;;;18.98;59.72;95416.09;5094721;28;20114;-80
2022/07/08 01:59:39;;;;;;;8.65;5.90;;;;;;;18.91;60.01;95418.91;5077079;28;20516;-80
2022/07/08 02:02:05;;;;;;;6.07;5.47;;;;;;;18.92;59.48;95422.47;5090806;28;20081;-81
2022/07/08 02:04:30;;;;;;;6.47;5.55;;;;;;;18.90;59.34;95412.66;5109053;28;20069;-81
2022/07/08 02:06:56;;;;;;;6.00;5.40;;;;;;;18.94;59.56;95410.31;5110023;28;20080;-81
2022/07/08 02:09:21;;;;;;;9.27;5.45;;;;;;;18.96;59.22;95418.25;5090518;28;20036;-80
2022/07/08 02:14:32;;;;;;;7.95;5.40;;;;;;;18.98;58.90;95418.81;5079552;28;20115;-80
2022/07/08 02:16:57;;;;;;;7.00;5.68;;;;;;;18.87;58.96;95410.41;5091182;28;20054;-80
2022/07/08 02:19:23;;;;;;;5.90;5.28;;;;;;;18.88;58.97;95420.22;5090759;28;20501;-80
2022/07/08 02:21:48;;;;;;;6.93;5.40;;;;;;;18.96;58.62;95420.97;5109421;28;20039;-80
2022/07/08 02:24:13;;;;;;;10.25;5.63;;;;;;;18.92;59.10;95427.91;5109795;28;20406;-79
2022/07/08 02:26:39;;;;;;;5.78;4.97;;;;;;;18.96;59.35;95429.13;5108461;28;20489;-80
2022/07/08 02:29:05;;;;;;;5.43;4.93;;;;;;;18.92;58.36;95422.47;5090874;28;20016;-80
2022/07/08 02:31:30;;;;;;;6.78;5.38;;;;;;;18.90;58.18;95425.41;5089718;28;20028;-81
2022/07/08 02:33:56;;;;;;;6.78;5.40;;;;;;;18.82;58.72;95429.28;5074269;28;20092;-81
2022/07/08 02:36:21;;;;;;;7.25;5.07;;;;;;;18.84;58.61;95437.22;5089705;28;20045;-81
2022/07/08 02:38:47;;;;;;;6.40;5.15;;;;;;;18.82;58.71;95429.28;5090910;28;20027;-81
2022/07/08 02:41:12;;;;;;;8.45;5.47;;;;;;;18.82;58.79;95429.28;5108935;28;20031;-81
2022/07/08 02:43:38;;;;;;;6.30;5.47;;;;;;;18.82;58.75;95437.44;5089708;28;20402;-81
2022/07/08 02:46:03;;;;;;;5.88;5.25;;;;;;;18.80;58.99;95436.81;5108830;28;20027;-81
2022/07/08 02:48:28;;;;;;;8.27;5.50;;;;;;;18.77;59.01;95437.28;5107667;28;20164;-81
2022/07/08 02:50:54;;;;;;;6.00;5.40;;;;;;;18.70;59.08;95429.22;5109065;28;20031;-81
2022/07/08 02:53:19;;;;;;;7.95;5.20;;;;;;;18.69;58.88;95430.28;5106687;28;20498;-80
2022/07/08 02:55:45;;;;;;;8.82;5.95;;;;;;;18.65;59.09;95434.53;5073368;28;20650;-80
2022/07/08 02:58:11;;;;;;;10.15;5.70;;;;;;;18.65;59.01;95432.63;5088782;28;20488;-81
2022/07/08 03:00:36;;;;;;;6.70;5.28;;;;;;;18.61;59.22;95433.31;5108094;28;20026;-79
2022/07/08 03:03:02;;;;;;;6.15;5.55;;;;;;;18.63;59.27;95432.03;5072522;28;20024;-80
2022/07/08 03:05:27;;;;;;;7.55;5.88;;;;;;;18.50;59.29;95427.59;5089572;28;20059;-80
2022/07/08 03:07:53;;;;;;;8.07;5.25;;;;;;;18.48;59.55;95429.72;5073094;28;20500;-81
2022/07/08 03:10:18;;;;;;;6.25;5.65;;;;;;;18.38;59.88;95437.53;5106815;28;20023;-80
2022/07/08 03:12:44;;;;;;;5.88;5.22;;;;;;;18.43;59.56;95432.28;5090028;28;20024;-81
2022/07/08 03:15:09;;;;;;;7.90;5.40;;;;;;;18.43;59.51;95434.97;5106756;28;20023;-80
2022/07/08 03:17:34;;;;;;;11.38;5.70;;;;;;;18.43;59.19;95436.88;5108204;28;20050;-81
2022/07/08 03:20:00;;;;;;;6.50;5.40;;;;;;;18.40;60.50;95444.41;5071906;28;20020;-81
2022/07/08 03:22:25;;;;;;;5.80;5.15;;;;;;;18.43;60.48;95443.13;5107755;28;20024;-79
2022/07/08 03:24:51;;;;;;;6.70;5.20;;;;;;;18.44;59.52;95438.53;5088947;28;20028;-79
2022/07/08 03:27:16;;;;;;;6.72;5.18;;;;;;;18.46;59.34;95441.88;5107150;28;20039;-80
2022/07/08 03:29:42;;;;;;;7.03;5.50;;;;;;;18.51;59.23;95439.28;5072254;28;20024;-81
2022/07/08 03:32:07;;;;;;;8.88;5.13;;;;;;;18.50;59.39;95438.47;5088206;28;20049;-82
2022/07/08 03:34:33;;;;;;;9.13;5.72;;;;;;;18.53;58.83;95439.88;5107838;28;20043;-81
2022/07/08 03:36:59;;;;;;;6.85;5.07;;;;;;;18.57;58.64;95445.69;5106393;28;20031;-80
2022/07/08 03:39:24;;;;;;;6.10;5.35;;;;;;;18.62;59.01;95449.38;5089245;28;20024;-81
2022/07/08 03:41:50;;;;;;;9.13;5.68;;;;;;;18.57;59.17;95442.97;5106472;28;20477;-80
2022/07/08 03:44:15;;;;;;;6.78;5.00;;;;;;;18.57;59.21;95449.22;5107141;28;20555;-80
2022/07/08 03:46:40;;;;;;;8.35;5.32;;;;;;;18.57;58.63;95443.78;5088672;28;20026;-81
2022/07/08 03:49:07;;;;;;;9.05;5.40;;;;;;;18.53;59.04;95448.03;5089516;28;20027;-80
2022/07/08 03:51:33;;;;;;;6.75;5.35;;;;;;;18.49;59.48;95442.22;5071947;28;20047;-81
2022/07/08 03:53:58;;;;;;;6.57;5.18;;;;;;;18.50;58.48;95448.50;5087696;28;20434;-80
2022/07/08 03:56:24;;;;;;;12.35;7.45;;;;;;;18.47;58.84;95443.50;5088833;28;20084;-80
2022/07/08 03:58:49;;;;;;;7.07;4.80;;;;;;;18.47;59.20;95449.78;5087533;28;20076;-81
2022/07/08 04:01:15;;;;;;;9.73;5.63;;;;;;;18.51;58.82;95444.72;5106822;28;20439;-81
2022/07/08 04:03:40;;;;;;;6.82;5.75;;;;;;;18.52;58.69;95446.38;5086398;28;20019;-81
2022/07/08 04:06:06;;;;;;;9.02;5.60;;;;;;;18.55;59.34;95454.06;5106484;28;20076;-81
2022/07/08 04:08:31;;;;;;;6.97;5.60;;;;;;;18.59;59.36;95449.84;5112207;28;20482;-80
2022/07/08 04:10:57;;;;;;;6.22;5.63;;;;;;;18.68;59.81;95454.97;5087064;28;20024;-81
2022/07/08 04:13:27;;;;;;;7.93;5.97;;;;;;;18.61;60.90;95455.88;5107713;28;20032;-80
2022/07/08 04:15:53;;;;;;;8.65;5.85;;;;;;;18.69;61.05;95452.03;5087222;28;20821;-80
2022/07/08 04:18:19;;;;;;;7.15;5.65;;;;;;;18.75;60.26;95456.53;5087884;28;20418;-81
2022/07/08 04:20:44;;;;;;;9.60;5.93;;;;;;;18.81;59.49;95452.09;5052583;28;20053;-81
2022/07/08 04:23:10;;;;;;;6.50;5.40;;;;;;;18.96;58.26;95456.28;5105857;28;20015;-81
2022/07/08 04:25:36;;;;;;;6.75;5.50;;;;;;;19.09;57.69;95453.41;5086413;28;20502;-81
2022/07/08 04:28:01;;;;;;;7.68;5.35;;;;;;;19.22;57.66;95452.38;5087024;28;20034;-81
2022/07/08 04:30:27;;;;;;;10.32;5.97;;;;;;;19.28;58.48;95453.38;5070061;28;20054;-81
2022/07/08 04:32:52;;;;;;;9.23;5.82;;;;;;;19.24;58.50;95454.88;5069167;28;20034;-80
2022/07/08 04:35:18;;;;;;;7.43;5.28;;;;;;;19.36;57.79;95453.00;5070547;28;20024;-82
2022/07/08 04:37:43;;;;;;;8.98;5.15;;;;;;;19.50;57.33;95461.81;5104526;28;20023;-81
2022/07/08 04:40:09;;;;;;;14.65;5.70;;;;;;;19.64;56.97;95456.97;5070618;28;20024;-82
2022/07/08 04:42:36;;;;;;;8.55;6.25;;;;;;;19.82;56.47;95457.13;5086020;28;20059;-82
2022/07/08 04:45:02;;;;;;;7.88;5.40;;;;;;;19.95;56.03;95454.19;5087609;28;20063;-81
2022/07/08 04:47:28;;;;;;;9.20;5.35;;;;;;;20.07;55.68;95459.63;5069802;28;20038;-81
2022/07/08 04:49:53;;;;;;;8.80;5.65;;;;;;;20.19;55.08;95454.19;5086425;28;20032;-80
2022/07/08 04:52:19;;;;;;;5.93;4.63;;;;;;;20.29;54.97;95455.50;5086917;28;20032;-81
2022/07/08 04:54:44;;;;;;;8.38;4.88;;;;;;;20.29;55.27;95448.16;5104152;28;20023;-80
2022/07/08 04:57:09;;;;;;;7.15;5.20;;;;;;;20.49;55.62;95455.13;5109347;28;20032;-80
2022/07/08 04:59:35;;;;;;;8.60;4.57;;;;;;;20.58;55.94;95456.41;5108290;28;20498;-81
2022/07/08 05:02:00;;;;;;;5.18;4.68;;;;;;;20.56;55.46;95453.06;5077111;28;20445;-80
2022/07/08 05:04:26;;;;;;;6.40;4.90;;;;;;;20.73;55.13;95450.41;5062660;28;20131;-80
2022/07/08 05:06:51;;;;;;;7.30;4.80;;;;;;;20.84;55.36;95450.63;5074064;28;20590;-81
2022/07/08 05:09:17;;;;;;;7.03;5.40;;;;;;;20.95;55.72;95455.25;5090499;28;20028;-83
2022/07/08 05:11:42;;;;;;;8.02;5.70;;;;;;;21.01;55.64;95448.00;5108412;28;20028;-80
2022/07/08 05:14:12;;;;;;;6.85;5.68;;;;;;;21.10;55.21;95453.91;5091057;28;20024;-80
2022/07/08 05:16:38;;;;;;;8.52;5.90;;;;;;;21.14;55.28;95452.31;5108152;28;20027;-81
2022/07/08 05:19:04;;;;;;;6.47;5.70;;;;;;;21.17;55.47;95448.28;5090721;28;20023;-82
2022/07/08 05:21:29;;;;;;;8.93;6.03;;;;;;;21.12;55.82;95447.13;5108018;28;20034;-81
2022/07/08 05:23:55;;;;;;;9.57;6.13;;;;;;;21.12;55.96;95452.56;5091809;28;20051;-82
2022/07/08 05:26:20;;;;;;;9.68;6.05;;;;;;;21.27;56.16;95462.09;5090317;28;20478;-80
2022/07/08 05:28:46;;;;;;;8.68;6.00;;;;;;;21.36;56.45;95455.19;5072998;28;20016;-81
2022/07/08 05:31:11;;;;;;;7.95;6.57;;;;;;;21.47;56.67;95455.38;5073245;28;20027;-82
2022/07/08 05:33:42;;;;;;;10.02;6.80;;;;;;;21.53;56.35;95462.56;5090243;28;20410;-81
2022/07/08 05:36:08;;;;;;;7.53;6.40;;;;;;;21.64;56.51;95460.00;5094998;28;20088;-81
2022/07/08 05:38:33;;;;;;;10.07;6.28;;;;;;;21.68;55.74;95453.00;5089129;28;20124;-83
2022/07/08 05:40:59;;;;;;;9.02;5.90;;;;;;;21.77;56.27;95451.53;5090180;28;20055;-82
2022/07/08 05:43:24;;;;;;;10.40;6.57;;;;;;;21.88;56.39;95440.78;5089665;28;20712;-81
2022/07/08 05:45:50;;;;;;;7.53;5.88;;;;;;;21.97;55.47;95442.03;5089669;28;20493;-82
2022/07/08 05:48:15;;;;;;;8.52;6.38;;;;;;;21.95;55.90;95441.44;5089489;28;20031;-81
2022/07/08 05:50:40;;;;;;;15.88;6.30;;;;;;;22.15;55.78;95440.91;5107695;28;20024;-82
2022/07/08 05:53:06;;;;;;;10.13;6.68;;;;;;;22.24;54.58;95438.59;5089601;28;20031;-81
2022/07/08 05:55:31;;;;;;;9.60;6.05;;;;;;;22.18;54.77;95440.41;5072120;28;20553;-82
2022/07/08 05:57:57;;;;;;;7.57;6.05;;;;;;;22.20;54.64;95442.88;5089618;28;20419;-82
2022/07/08 06:00:22;;;;;;;10.77;5.88;;;;;;;22.35;54.59;95447.75;5072382;28;20039;-82
2022/07/08 06:02:49;;;;;;;11.95;6.30;;;;;;;22.38;55.26;95444.50;5069642;28;20036;-82
2022/07/08 06:05:14;;;;;;;17.10;6.30;;;;;;;22.32;54.91;95440.88;5085569;28;20035;-81
2022/07/08 06:07:41;;;;;;;11.75;6.03;;;;;;;22.20;55.14;95442.88;5068816;28;20020;-81
2022/07/08 06:10:07;;;;;;;10.02;5.80;;;;;;;22.41;54.60;95448.66;5087218;28;20024;-82
2022/07/08 06:12:32;;;;;;;9.20;5.95;;;;;;;22.59;54.53;95442.91;5086506;28;20471;-81
2022/07/08 06:14:58;;;;;;;15.10;6.20;;;;;;;22.64;54.59;95439.41;5069170;28;20039;-82
2022/07/08 06:17:23;;;;;;;13.02;6.90;;;;;;;22.43;54.65;95444.59;5086517;28;20035;-81
2022/07/08 06:19:48;;;;;;;7.97;6.18;;;;;;;22.71;54.38;95440.03;5086188;28;20548;-81
2022/07/08 06:22:14;;;;;;;12.75;6.70;;;;;;;22.92;54.64;95434.00;5085006;28;20028;-82
2022/07/08 06:24:39;;;;;;;7.18;5.75;;;;;;;23.01;54.09;95429.72;5069111;28;20043;-82
2022/07/08 06:27:05;;;;;;;8.15;5.85;;;;;;;22.89;54.03;95423.56;5087029;28;20396;-82
2022/07/08 06:29:30;;;;;;;11.00;6.45;;;;;;;22.66;54.56;95428.22;5085427;28;20136;-81
2022/07/08 06:31:56;;;;;;;7.63;6.05;;;;;;;22.46;55.33;95424.09;5087154;28;20499;-81
2022/07/08 06:34:21;;;;;;;7.75;6.32;;;;;;;22.29;55.28;95422.28;5084725;28;20028;-81
2022/07/08 06:36:47;;;;;;;12.50;6.22;;;;;;;22.55;55.03;95417.16;5086124;28;20025;-81
2022/07/08 06:39:12;;;;;;;6.78;6.03;;;;;;;22.70;54.89;95412.94;5051046;28;20027;-82
2022/07/08 06:41:38;;;;;;;10.63;7.10;;;;;;;22.71;54.97;95411.88;5086901;28;20024;-81
2022/07/08 06:44:03;;;;;;;8.82;5.45;;;;;;;22.77;54.67;95413.59;5084950;28;20470;-81
2022/07/08 06:46:29;;;;;;;7.88;6.10;;;;;;;22.91;53.94;95410.47;5068289;28;20610;-82
2022/07/08 06:48:54;;;;;;;6.13;5.50;;;;;;;23.08;53.76;95408.47;5084905;28;20487;-82
2022/07/08 06:51:20;;;;;;;8.57;5.88;;;;;;;23.37;53.77;95398.34;5084599;28;20028;-82
2022/07/08 06:56:30;;;;;;;10.07;6.10;;;;;;;23.77;52.50;95401.69;5084562;28;20050;-81
2022/07/08 06:58:55;;;;;;;10.38;6.30;;;;;;;23.56;52.49;95399.63;5068098;28;20482;-81
2022/07/08 07:01:21;;;;;;;7.82;5.95;;;;;;;23.66;52.52;95392.59;5067300;28;20048;-83
2022/07/08 07:03:46;;;;;;;10.73;5.38;;;;;;;23.96;51.27;95380.19;5067947;28;20043;-82
2022/07/08 07:06:12;;;;;;;8.80;5.63;;;;;;;24.03;53.05;95380.81;5067684;28;20024;-83
2022/07/08 07:08:37;;;;;;;6.35;4.68;;;;;;;24.13;51.21;95387.44;5085925;28;20035;-80
2022/07/08 07:11:03;;;;;;;7.20;4.68;;;;;;;24.19;50.45;95379.00;5086212;28;20027;-82
2022/07/08 07:13:28;;;;;;;10.88;5.38;;;;;;;24.14;50.72;95368.00;5066919;28;20027;-82
2022/07/08 07:15:54;;;;;;;13.60;5.57;;;;;;;24.12;51.77;95366.63;5084903;28;20470;-82
2022/07/08 07:18:19;;;;;;;5.07;4.57;;;;;;;23.96;51.13;95371.97;5084173;28;20035;-82
2022/07/08 07:20:45;;;;;;;6.65;5.00;;;;;;;23.91;50.98;95367.28;5086097;28;20027;-82
2022/07/08 07:23:10;;;;;;;8.75;4.78;;;;;;;24.00;51.48;95367.63;5084155;28;20024;-82
2022/07/08 07:25:36;;;;;;;4.45;4.03;;;;;;;24.08;50.34;95367.13;5085657;28;20379;-82
2022/07/08 07:28:01;;;;;;;5.22;4.15;;;;;;;24.13;50.53;95362.78;5067463;28;20035;-82
2022/07/08 07:30:26;;;;;;;5.13;4.55;;;;;;;24.20;49.85;95371.59;5085112;28;20032;-82
2022/07/08 07:32:52;;;;;;;9.57;4.70;;;;;;;24.23;50.97;95373.00;5067970;28;20089;-81
2022/07/08 07:35:18;;;;;;;5.95;4.70;;;;;;;24.09;49.99;95370.69;5066802;28;20044;-82
2022/07/08 07:37:43;;;;;;;5.85;4.50;;;;;;;24.10;51.24;95374.25;5085673;28;20118;-82
2022/07/08 07:40:09;;;;;;;6.38;4.90;;;;;;;24.14;49.74;95375.38;5083515;28;20078;-82
2022/07/08 07:42:34;;;;;;;7.03;4.68;;;;;;;24.10;50.17;95372.34;5083985;28;20024;-81
2022/07/08 07:45:02;;;;;;;5.65;4.40;;;;;;;24.30;50.20;95370.81;5066860;28;20067;-81
2022/07/08 07:47:28;;;;;;;4.88;4.25;;;;;;;24.50;49.64;95370.13;5084003;28;20470;-82
2022/07/08 07:49:53;;;;;;;7.97;4.50;;;;;;;24.53;49.52;95383.28;5084030;28;20024;-81
2022/07/08 07:52:19;;;;;;;7.00;4.13;;;;;;;24.60;48.41;95373.97;5050193;28;20387;-84
2022/07/08 07:54:45;;;;;;;7.70;4.45;;;;;;;24.52;48.75;95378.88;5067025;28;20028;-82
2022/07/08 07:57:10;;;;;;;5.07;3.70;;;;;;;24.70;48.09;95376.75;5071316;28;20149;-82
2022/07/08 07:59:36;;;;;;;3.97;3.58;;;;;;;24.81;47.49;95381.16;5068015;28;20032;-82
2022/07/08 08:02:02;;;;;;;4.13;3.67;;;;;;;24.86;47.64;95366.66;5094505;28;20088;-83
2022/07/08 08:04:27;;;;;;;6.40;3.88;;;;;;;25.15;47.18;95368.13;5105869;28;20047;-81
2022/07/08 08:06:53;;;;;;;4.00;3.60;;;;;;;25.09;48.52;95372.75;5070402;28;20427;-81
2022/07/08 08:09:18;;;;;;;4.28;3.85;;;;;;;25.12;47.37;95374.97;5069914;28;20563;-82
2022/07/08 08:11:44;;;;;;;4.85;3.60;;;;;;;25.12;47.92;95376.88;5087453;28;20024;-83
2022/07/08 08:14:10;;;;;;;7.00;3.53;;;;;;;25.17;47.52;95376.88;5105312;28;20523;-83
2022/07/08 08:16:35;;;;;;;3.90;3.42;;;;;;;25.12;47.23;95377.72;5108125;28;20024;-83
2022/07/08 08:19:01;;;;;;;5.00;3.20;;;;;;;25.26;45.89;95363.47;5088529;28;20027;-83
2022/07/08 08:21:26;;;;;;;5.18;3.20;;;;;;;25.40;46.43;95363.75;5088540;28;20032;-82
2022/07/08 08:23:52;;;;;;;4.30;2.78;;;;;;;25.33;44.42;95368.69;5087184;28;20031;-83
2022/07/08 08:26:17;;;;;;;4.13;2.75;;;;;;;25.36;44.82;95370.91;5070760;28;20077;-82
2022/07/08 08:28:43;;;;;;;3.58;2.95;;;;;;;25.37;44.95;95364.28;5070237;28;20024;-83
2022/07/08 08:31:08;;;;;;;3.92;3.45;;;;;;;25.40;45.01;95363.75;5108978;28;20031;-81
2022/07/08 08:33:33;;;;;;;6.25;3.20;;;;;;;25.35;45.22;95342.59;5110086;28;20425;-81
2022/07/08 08:36:00;;;;;;;7.63;2.92;;;;;;;25.35;44.59;95350.00;5073793;28;20046;-81
2022/07/08 08:38:25;;;;;;;4.57;2.67;;;;;;;25.40;45.35;95352.75;5074925;28;20015;-82
2022/07/08 08:40:53;;;;;;;4.13;3.15;;;;;;;25.40;44.64;95341.78;5076439;28;20023;-83
2022/07/08 08:43:19;;;;;;;4.85;2.97;;;;;;;25.45;44.41;95336.31;5059384;28;20076;-82
2022/07/08 08:45:44;;;;;;;4.82;3.10;;;;;;;25.47;44.49;95342.31;5090770;28;20026;-83
2022/07/08 08:48:10;;;;;;;3.72;2.90;;;;;;;25.60;43.98;95343.69;5074466;28;20028;-82
2022/07/08 08:50:53;;;;;;;3.67;2.67;;;;;;;25.36;44.22;95349.75;5074435;28;20031;-81
2022/07/08 08:53:19;;;;;;;3.40;2.60;;;;;;;25.34;45.13;95337.41;5090237;28;20076;-81
2022/07/08 08:55:44;;;;;;;5.90;2.70;;;;;;;25.39;46.44;95335.47;5057381;28;20084;-82
2022/07/08 08:58:10;;;;;;;3.63;2.55;;;;;;;25.37;44.42;95328.63;5073508;28;20493;-83
2022/07/08 09:00:36;;;;;;;3.22;2.10;;;;;;;25.40;43.01;95325.31;5074320;28;20024;-81
2022/07/08 09:03:02;;;;;;;3.25;1.70;;;;;;;25.47;42.68;95325.84;5108106;28;20068;-81
2022/07/08 09:05:27;;;;;;;4.40;1.70;;;;;;;25.54;40.55;95322.84;5073888;28;20103;-83
2022/07/08 09:07:53;;;;;;;3.55;1.70;;;;;;;25.60;41.11;95323.66;5073974;28;20108;-82
2022/07/08 09:10:19;;;;;;;3.63;1.90;;;;;;;25.77;41.31;95309.66;5108398;28;20073;-82
2022/07/08 09:13:03;;;;;;;3.00;1.60;;;;;;;25.83;40.78;95319.53;5073803;28;20032;-82
2022/07/08 09:15:38;;;;;;;3.80;1.60;;;;;;;25.97;40.97;95318.97;5108367;28;20038;-83
2022/07/08 09:18:09;;;;;;;2.55;1.58;;;;;;;25.97;40.99;95314.28;5090548;28;20024;-82
2022/07/08 09:20:44;;;;;;;2.50;1.90;;;;;;;26.04;39.80;95303.81;5109221;28;20091;-82
2022/07/08 09:23:19;;;;;;;2.17;1.65;;;;;;;26.07;39.92;95293.38;5089657;28;20359;-82
2022/07/08 09:25:47;;;;;;;3.15;1.85;;;;;;;25.87;40.22;95306.06;5091213;28;20027;-82
2022/07/08 09:28:13;;;;;;;5.28;1.90;;;;;;;25.99;39.98;95303.00;5090368;28;20031;-84
2022/07/08 09:30:39;;;;;;;3.45;2.25;;;;;;;25.97;40.11;95310.72;5074715;28;20035;-81
2022/07/08 09:33:04;;;;;;;9.00;2.10;;;;;;;26.02;40.70;95307.97;5091233;28;20168;-84
2022/07/08 09:35:37;;;;;;;6.57;2.00;;;;;;;26.11;40.61;95306.28;5092294;28;20384;-81
2022/07/08 09:38:04;;;;;;;2.50;2.10;;;;;;;25.94;40.40;95295.59;5065989;28;20405;-82
2022/07/08 09:40:29;;;;;;;5.47;1.90;;;;;;;26.00;39.74;95293.69;5078079;28;20026;-82
2022/07/08 09:42:55;;;;;;;2.42;1.88;;;;;;;26.01;40.36;95287.91;5072934;28;20019;-81
2022/07/08 09:45:27;;;;;;;4.32;2.20;;;;;;;26.12;41.94;95285.94;5088995;28;20035;-82
2022/07/08 09:47:55;;;;;;;4.05;1.95;;;;;;;26.22;41.28;95279.56;5082704;28;20028;-82
2022/07/08 09:50:30;;;;;;;4.43;2.20;;;;;;;26.20;41.12;95287.28;5067519;28;20028;-84
2022/07/08 09:52:56;;;;;;;3.15;2.20;;;;;;;26.04;40.54;95284.59;5035849;28;20024;-83
2022/07/08 09:55:21;;;;;;;2.88;2.20;;;;;;;26.04;41.11;95278.25;5067790;28;20031;-84
2022/07/08 09:57:47;;;;;;;2.35;2.03;;;;;;;26.05;40.81;95288.16;5068836;28;20024;-84
2022/07/08 10:00:13;;;;;;;2.55;1.90;;;;;;;26.08;40.29;95281.28;5069716;28;20039;-84
2022/07/08 10:02:38;;;;;;;4.32;1.90;;;;;;;26.19;41.00;95285.63;5068705;28;20044;-83
2022/07/08 10:05:04;;;;;;;2.53;1.92;;;;;;;26.09;40.21;95274.66;5052947;28;20039;-84
2022/07/08 10:07:29;;;;;;;3.42;1.90;;;;;;;26.16;40.25;95264.22;5069237;28;20024;-83
2022/07/08 10:09:55;;;;;;;3.63;1.70;;;;;;;26.36;40.44;95266.06;5069885;28;20032;-84
2022/07/08 10:12:20;;;;;;;3.33;2.25;;;;;;;26.44;39.76;95258.34;5086898;28;20058;-84
2022/07/08 10:14:49;;;;;;;3.00;1.95;;;;;;;26.47;40.80;95257.78;5035906;28;20563;-84
2022/07/08 10:17:16;;;;;;;3.38;1.90;;;;;;;26.42;41.16;95244.88;5069677;28;20062;-83
2022/07/08 10:19:41;;;;;;;3.88;1.90;;;;;;;26.50;40.85;95241.50;5069179;28;20124;-83
2022/07/08 10:22:07;;;;;;;8.68;2.00;;;;;;;26.48;39.86;95240.16;5069298;28;20411;-84
2022/07/08 10:24:33;;;;;;;3.97;2.05;;;;;;;26.32;40.09;95240.25;5051965;28;20465;-83
2022/07/08 10:26:59;;;;;;;7.93;1.92;;;;;;;26.39;39.64;95234.47;5052731;28;20090;-85
2022/07/08 10:29:28;;;;;;;3.75;1.63;;;;;;;26.35;39.70;95227.88;5051661;28;20030;-84
2022/07/08 10:31:54;;;;;;;2.42;1.90;;;;;;;26.31;38.77;95226.78;5069290;28;20111;-83
2022/07/08 10:34:20;;;;;;;2.92;1.85;;;;;;;26.23;39.52;95231.75;5052000;28;20456;-83
2022/07/08 10:36:53;;;;;;;3.38;1.80;;;;;;;26.21;37.23;95220.22;5052009;28;20025;-85
2022/07/08 10:39:28;;;;;;;2.00;1.60;;;;;;;26.16;38.81;95220.25;5052006;28;20437;-84
2022/07/08 10:42:06;;;;;;;4.15;1.88;;;;;;;26.45;37.57;95221.50;5092517;28;20023;-83
2022/07/08 10:44:44;;;;;;;3.47;1.80;;;;;;;26.58;38.99;95225.53;5068640;28;20051;-84
2022/07/08 10:47:16;;;;;;;3.90;1.60;;;;;;;26.73;38.09;95233.69;5074083;28;20036;-84
2022/07/08 10:49:47;;;;;;;3.08;2.08;;;;;;;26.76;38.68;95238.59;5098364;28;20476;-84
2022/07/08 10:52:13;;;;;;;4.18;1.88;;;;;;;26.68;38.26;95246.66;5079096;28;20043;-84
2022/07/08 10:54:39;;;;;;;2.40;1.67;;;;;;;26.65;38.68;95248.03;5070464;28;20034;-83
2022/07/08 10:57:08;;;;;;;2.55;1.80;;;;;;;26.55;39.21;95240.69;5070511;28;20024;-83
2022/07/08 10:59:35;;;;;;;2.70;1.90;;;;;;;26.57;38.12;95241.22;5104841;28;20570;-86
2022/07/08 11:02:08;;;;;;;3.85;1.95;;;;;;;26.38;37.73;95227.28;5083566;28;20132;-83
2022/07/08 11:04:33;;;;;;;4.07;1.88;;;;;;;26.24;37.36;95230.66;5083483;28;20532;-82
2022/07/08 11:09:46;;;;;;;3.30;1.80;;;;;;;25.99;37.19;95204.94;5106804;28;20058;-81
2022/07/08 11:12:14;;;;;;;2.55;1.80;;;;;;;25.96;37.94;95216.47;5087916;28;20031;-81
2022/07/08 11:14:44;;;;;;;3.10;1.85;;;;;;;26.01;38.37;95210.97;5088141;28;20030;-82
2022/07/08 11:17:14;;;;;;;2.85;1.98;;;;;;;26.03;37.83;95211.53;5087954;28;20026;-82
2022/07/08 11:19:41;;;;;;;5.35;1.85;;;;;;;26.01;37.27;95210.97;5106863;28;20485;-81
2022/07/08 11:22:07;;;;;;;8.50;1.92;;;;;;;26.06;37.44;95201.88;5087542;28;20032;-82
2022/07/08 11:24:32;;;;;;;4.32;1.95;;;;;;;26.02;37.91;95198.88;5086996;28;20031;-82
2022/07/08 11:26:57;;;;;;;2.63;1.80;;;;;;;26.04;37.41;95191.16;5106625;28;20028;-83
2022/07/08 11:29:24;;;;;;;3.78;1.80;;;;;;;25.92;37.23;95183.25;5087919;28;20023;-81
2022/07/08 11:31:57;;;;;;;4.68;1.80;;;;;;;25.88;37.64;95195.09;5071856;28;20028;-82
2022/07/08 11:34:24;;;;;;;8.43;2.17;;;;;;;25.92;37.76;95183.25;5105713;28;20089;-82